createdAt,value
2019-05-03T00:00:31.959Z,964.32
2019-05-03T00:01:32.418Z,964.38
2019-05-03T00:02:32.309Z,964.32
2019-05-03T00:03:32.039Z,964.30
2019-05-03T00:04:31.767Z,964.26
2019-05-03T00:05:32.478Z,964.32
2019-05-03T00:06:32.134Z,964.33
2019-05-03T00:07:31.889Z,964.30
2019-05-03T00:08:33.324Z,964.20
2019-05-03T00:09:32.009Z,964.30
2019-05-03T00:10:31.898Z,964.25
2019-05-03T00:11:32.672Z,964.30
2019-05-03T00:12:32.765Z,964.26
2019-05-03T00:13:32.545Z,964.23
2019-05-03T00:14:32.525Z,964.22
2019-05-03T00:15:32.337Z,964.22
2019-05-03T00:16:32.530Z,964.19
2019-05-03T00:17:32.490Z,964.29
2019-05-03T00:18:32.766Z,964.32
2019-05-03T00:19:32.773Z,964.27
2019-05-03T00:20:32.645Z,964.24
2019-05-03T00:21:32.684Z,964.14
2019-05-03T00:22:32.390Z,964.20
2019-05-03T00:23:32.415Z,964.24
2019-05-03T00:24:32.213Z,964.10
2019-05-03T00:25:32.661Z,964.23
2019-05-03T00:26:31.867Z,964.21
2019-05-03T00:27:32.252Z,964.18
2019-05-03T00:28:32.219Z,964.22
2019-05-03T00:29:32.552Z,964.19
2019-05-03T00:30:32.099Z,964.20
2019-05-03T00:31:31.923Z,964.21
2019-05-03T00:32:32.071Z,964.17
2019-05-03T00:33:31.937Z,964.25
2019-05-03T00:34:32.425Z,964.24
2019-05-03T00:35:31.994Z,964.25
2019-05-03T00:36:32.808Z,964.21
2019-05-03T00:37:32.759Z,964.23
2019-05-03T00:38:32.513Z,964.07
2019-05-03T00:39:32.482Z,964.22
2019-05-03T00:40:32.404Z,964.15
2019-05-03T00:41:32.095Z,964.17
2019-05-03T00:42:31.859Z,964.17
2019-05-03T00:43:31.899Z,964.13
2019-05-03T00:44:31.970Z,964.20
2019-05-03T00:45:32.025Z,964.17
2019-05-03T00:46:32.760Z,964.20
2019-05-03T00:47:32.843Z,964.25
2019-05-03T00:48:32.618Z,964.23
2019-05-03T00:49:32.155Z,964.20
2019-05-03T00:50:32.216Z,964.10
2019-05-03T00:51:31.908Z,964.09
2019-05-03T00:52:32.047Z,964.11
2019-05-03T00:53:31.938Z,964.15
2019-05-03T00:54:32.035Z,964.13
2019-05-03T00:55:32.801Z,964.21
2019-05-03T00:56:32.238Z,964.15
2019-05-03T00:57:32.416Z,964.03
2019-05-03T00:58:32.102Z,964.06
2019-05-03T00:59:32.622Z,964.12
2019-05-03T01:00:32.394Z,964.15
2019-05-03T01:01:32.184Z,964.11
2019-05-03T01:02:32.119Z,964.21
2019-05-03T01:03:32.570Z,964.18
2019-05-03T01:04:32.241Z,964.22
2019-05-03T01:05:33.143Z,964.13
2019-05-03T01:06:32.331Z,964.13
2019-05-03T01:07:32.450Z,964.18
2019-05-03T01:08:32.753Z,964.06
2019-05-03T01:09:32.277Z,964.15
2019-05-03T01:10:33.077Z,964.09
2019-05-03T01:11:32.481Z,964.11
2019-05-03T01:12:32.538Z,964.05
2019-05-03T01:13:32.572Z,964.16
2019-05-03T01:14:32.292Z,964.18
2019-05-03T01:15:32.350Z,964.20
2019-05-03T01:16:32.315Z,964.19
2019-05-03T01:17:32.340Z,964.00
2019-05-03T01:18:32.546Z,964.18
2019-05-03T01:19:32.334Z,964.14
2019-05-03T01:20:32.351Z,964.17
2019-05-03T01:21:32.384Z,964.15
2019-05-03T01:22:32.373Z,964.16
2019-05-03T01:23:32.661Z,964.09
2019-05-03T01:24:32.432Z,964.14
2019-05-03T01:25:35.084Z,964.14
2019-05-03T01:26:32.345Z,964.11
2019-05-03T01:27:32.713Z,964.11
2019-05-03T01:28:32.634Z,964.15
2019-05-03T01:29:32.519Z,964.03
2019-05-03T01:30:32.465Z,964.13
2019-05-03T01:31:32.298Z,964.15
2019-05-03T01:32:33.053Z,964.09
2019-05-03T01:33:32.471Z,964.07
2019-05-03T01:34:32.698Z,964.14
2019-05-03T01:35:32.499Z,964.00
2019-05-03T01:36:32.450Z,964.09
2019-05-03T01:37:32.406Z,964.12
2019-05-03T01:38:32.465Z,964.19
2019-05-03T01:39:32.485Z,964.14
2019-05-03T01:40:32.731Z,963.97
2019-05-03T01:41:32.447Z,964.10
2019-05-03T01:42:32.616Z,964.13
2019-05-03T01:43:32.382Z,964.09
2019-05-03T01:44:32.760Z,964.12
2019-05-03T01:45:32.423Z,964.14
2019-05-03T01:46:32.487Z,964.13
2019-05-03T01:47:32.618Z,964.19
2019-05-03T01:48:32.422Z,964.18
2019-05-03T01:49:32.459Z,964.08
2019-05-03T01:50:32.551Z,964.15
2019-05-03T01:51:32.743Z,964.20
2019-05-03T01:52:32.517Z,964.11
2019-05-03T01:53:32.479Z,964.12
2019-05-03T01:54:32.602Z,964.21
2019-05-03T01:55:42.236Z,964.25
2019-05-03T01:56:32.444Z,964.19
2019-05-03T01:57:32.536Z,964.26
2019-05-03T01:58:32.466Z,964.20
2019-05-03T01:59:32.347Z,964.28
2019-05-03T02:00:32.419Z,964.28
2019-05-03T02:01:32.376Z,964.21
2019-05-03T02:02:32.641Z,964.25
2019-05-03T02:03:32.553Z,964.31
2019-05-03T02:04:32.464Z,964.27
2019-05-03T02:05:32.614Z,964.23
2019-05-03T02:06:32.546Z,964.13
2019-05-03T02:07:32.496Z,964.19
2019-05-03T02:08:32.722Z,964.19
2019-05-03T02:09:32.398Z,964.17
2019-05-03T02:10:32.416Z,964.25
2019-05-03T02:11:32.685Z,964.29
2019-05-03T02:12:32.396Z,964.21
2019-05-03T02:13:32.538Z,964.31
2019-05-03T02:14:32.514Z,964.25
2019-05-03T02:15:32.734Z,964.19
2019-05-03T02:16:32.593Z,964.17
2019-05-03T02:17:32.371Z,964.14
2019-05-03T02:18:32.617Z,964.26
2019-05-03T02:19:32.721Z,964.30
2019-05-03T02:20:32.574Z,964.26
2019-05-03T02:21:32.555Z,964.28
2019-05-03T02:22:32.598Z,964.22
2019-05-03T02:23:32.506Z,964.26
2019-05-03T02:24:32.858Z,964.37
2019-05-03T02:25:32.520Z,964.27
2019-05-03T02:26:32.556Z,964.33
2019-05-03T02:27:32.644Z,964.34
2019-05-03T02:28:32.777Z,964.26
2019-05-03T02:29:32.671Z,964.24
2019-05-03T02:30:33.327Z,964.32
2019-05-03T02:31:32.965Z,964.31
2019-05-03T02:32:33.259Z,964.37
2019-05-03T02:33:33.001Z,964.33
2019-05-03T02:34:32.900Z,964.32
2019-05-03T02:35:33.383Z,964.32
2019-05-03T02:36:33.699Z,964.24
2019-05-03T02:37:33.022Z,964.34
2019-05-03T02:38:33.843Z,964.36
2019-05-03T02:39:33.396Z,964.31
2019-05-03T02:40:33.856Z,964.30
2019-05-03T02:41:32.488Z,964.32
2019-05-03T02:42:34.906Z,964.26
2019-05-03T02:43:32.564Z,964.32
2019-05-03T02:44:35.398Z,964.32
2019-05-03T02:45:35.103Z,964.32
2019-05-03T02:46:32.729Z,964.28
2019-05-03T02:47:35.560Z,964.33
2019-05-03T02:48:32.480Z,964.30
2019-05-03T02:49:35.052Z,964.27
2019-05-03T02:50:32.516Z,964.30
2019-05-03T02:51:32.436Z,964.23
2019-05-03T02:52:35.839Z,964.27
2019-05-03T02:53:32.413Z,964.36
2019-05-03T02:54:35.123Z,964.33
2019-05-03T02:55:32.536Z,964.33
2019-05-03T02:56:32.557Z,964.31
2019-05-03T02:57:35.034Z,964.28
2019-05-03T02:58:35.685Z,964.31
2019-05-03T02:59:34.577Z,964.34
2019-05-03T03:00:32.494Z,964.29
2019-05-03T03:01:32.509Z,964.27
2019-05-03T03:02:32.530Z,964.30
2019-05-03T03:03:32.431Z,964.31
2019-05-03T03:04:35.143Z,964.30
2019-05-03T03:05:32.497Z,964.32
2019-05-03T03:06:32.551Z,964.30
2019-05-03T03:07:32.588Z,964.33
2019-05-03T03:08:33.575Z,964.35
2019-05-03T03:09:32.570Z,964.38
2019-05-03T03:10:32.557Z,964.33
2019-05-03T03:11:35.403Z,964.29
2019-05-03T03:12:35.381Z,964.40
2019-05-03T03:13:32.591Z,964.32
2019-05-03T03:14:32.496Z,964.34
2019-05-03T03:15:32.625Z,964.30
2019-05-03T03:16:32.412Z,964.32
2019-05-03T03:17:32.523Z,964.40
2019-05-03T03:18:32.541Z,964.39
2019-05-03T03:19:35.149Z,964.31
2019-05-03T03:20:32.736Z,964.40
2019-05-03T03:21:32.425Z,964.32
2019-05-03T03:22:32.587Z,964.36
2019-05-03T03:23:35.308Z,964.38
2019-05-03T03:24:32.440Z,964.32
2019-05-03T03:25:35.966Z,964.37
2019-05-03T03:26:38.194Z,964.28
2019-05-03T03:27:32.723Z,964.36
2019-05-03T03:28:32.587Z,964.28
2019-05-03T03:29:32.509Z,964.25
2019-05-03T03:30:37.537Z,964.31
2019-05-03T03:31:37.406Z,964.36
2019-05-03T03:32:38.053Z,964.27
2019-05-03T03:33:32.542Z,964.28
2019-05-03T03:34:32.549Z,964.33
2019-05-03T03:35:32.527Z,964.33
2019-05-03T03:36:50.668Z,964.26
2019-05-03T03:37:35.015Z,964.38
2019-05-03T03:38:35.138Z,964.33
2019-05-03T03:39:32.572Z,964.38
2019-05-03T03:40:32.587Z,964.28
2019-05-03T03:41:32.707Z,964.42
2019-05-03T03:42:36.395Z,964.35
2019-05-03T03:43:35.303Z,964.38
2019-05-03T03:44:32.501Z,964.38
2019-05-03T03:45:32.408Z,964.39
2019-05-03T03:46:32.549Z,964.43
2019-05-03T03:47:32.537Z,964.43
2019-05-03T03:48:35.330Z,964.42
2019-05-03T03:49:35.421Z,964.41
2019-05-03T03:50:32.546Z,964.33
2019-05-03T03:51:34.926Z,964.44
2019-05-03T03:52:32.684Z,964.42
2019-05-03T03:53:35.419Z,964.43
2019-05-03T03:54:35.251Z,964.47
2019-05-03T03:55:32.491Z,964.44
2019-05-03T03:56:32.609Z,964.32
2019-05-03T03:57:35.104Z,964.53
2019-05-03T03:58:35.619Z,964.55
2019-05-03T03:59:32.619Z,964.51
2019-05-03T04:00:32.553Z,964.46
2019-05-03T04:01:34.936Z,964.58
2019-05-03T04:02:35.141Z,964.49
2019-05-03T04:03:32.788Z,964.58
2019-05-03T04:04:32.665Z,964.60
2019-05-03T04:05:32.576Z,964.62
2019-05-03T04:06:32.601Z,964.59
2019-05-03T04:07:32.487Z,964.65
2019-05-03T04:08:32.583Z,964.63
2019-05-03T04:09:32.648Z,964.75
2019-05-03T04:10:35.024Z,964.64
2019-05-03T04:11:34.951Z,964.68
2019-05-03T04:12:35.104Z,964.64
2019-05-03T04:13:32.604Z,964.65
2019-05-03T04:14:32.777Z,964.66
2019-05-03T04:15:32.639Z,964.67
2019-05-03T04:16:32.561Z,964.71
2019-05-03T04:17:32.535Z,964.70
2019-05-03T04:18:32.598Z,964.71
2019-05-03T04:19:32.616Z,964.76
2019-05-03T04:20:32.696Z,964.73
2019-05-03T04:21:32.584Z,964.75
2019-05-03T04:22:32.481Z,964.77
2019-05-03T04:23:32.611Z,964.71
2019-05-03T04:24:35.008Z,964.81
2019-05-03T04:25:35.469Z,964.82
2019-05-03T04:26:32.617Z,964.81
2019-05-03T04:27:32.631Z,964.81
2019-05-03T04:28:32.631Z,964.83
2019-05-03T04:29:35.630Z,964.95
2019-05-03T04:30:32.564Z,964.83
2019-05-03T04:31:32.666Z,964.87
2019-05-03T04:32:32.574Z,964.87
2019-05-03T04:33:32.572Z,964.86
2019-05-03T04:34:32.605Z,964.94
2019-05-03T04:35:36.010Z,964.94
2019-05-03T04:36:35.608Z,964.90
2019-05-03T04:37:35.714Z,964.88
2019-05-03T04:38:32.606Z,964.96
2019-05-03T04:39:32.646Z,964.87
2019-05-03T04:40:35.456Z,964.96
2019-05-03T04:41:32.632Z,964.97
2019-05-03T04:42:35.481Z,964.97
2019-05-03T04:43:35.397Z,965.01
2019-05-03T04:44:35.473Z,965.01
2019-05-03T04:45:32.731Z,965.01
2019-05-03T04:46:32.606Z,965.01
2019-05-03T04:47:35.597Z,965.04
2019-05-03T04:48:32.616Z,965.04
2019-05-03T04:49:32.600Z,965.01
2019-05-03T04:50:32.772Z,965.04
2019-05-03T04:51:34.837Z,965.09
2019-05-03T04:52:32.641Z,965.02
2019-05-03T04:53:35.568Z,965.07
2019-05-03T04:54:32.785Z,965.08
2019-05-03T04:55:35.970Z,965.04
2019-05-03T04:56:32.677Z,965.04
2019-05-03T04:57:40.702Z,965.07
2019-05-03T04:58:32.786Z,965.02
2019-05-03T04:59:32.677Z,965.11
2019-05-03T05:00:35.509Z,965.07
2019-05-03T05:01:35.136Z,965.13
2019-05-03T05:02:35.250Z,965.16
2019-05-03T05:03:32.630Z,965.17
2019-05-03T05:04:32.588Z,965.13
2019-05-03T05:05:32.698Z,965.16
2019-05-03T05:06:34.982Z,965.06
2019-05-03T05:07:34.849Z,965.09
2019-05-03T05:08:32.655Z,965.19
2019-05-03T05:09:34.980Z,965.03
2019-05-03T05:10:32.738Z,965.14
2019-05-03T05:11:34.940Z,965.18
2019-05-03T05:12:35.421Z,965.12
2019-05-03T05:13:35.375Z,965.12
2019-05-03T05:14:35.043Z,965.08
2019-05-03T05:15:35.177Z,965.18
2019-05-03T05:16:34.951Z,965.19
2019-05-03T05:17:35.344Z,965.16
2019-05-03T05:18:35.200Z,965.22
2019-05-03T05:19:32.703Z,965.17
2019-05-03T05:20:34.961Z,965.29
2019-05-03T05:21:32.745Z,965.23
2019-05-03T05:22:34.809Z,965.17
2019-05-03T05:23:32.657Z,965.26
2019-05-03T05:24:34.513Z,965.19
2019-05-03T05:25:32.668Z,965.22
2019-05-03T05:26:32.701Z,965.23
2019-05-03T05:27:34.501Z,965.26
2019-05-03T05:28:32.681Z,965.23
2019-05-03T05:29:34.510Z,965.22
2019-05-03T05:30:32.685Z,965.27
2019-05-03T05:31:32.928Z,965.26
2019-05-03T05:32:32.600Z,965.20
2019-05-03T05:33:32.619Z,965.35
2019-05-03T05:34:34.868Z,965.28
2019-05-03T05:35:32.631Z,965.23
2019-05-03T05:36:34.614Z,965.28
2019-05-03T05:37:32.680Z,965.28
2019-05-03T05:38:34.511Z,965.29
2019-05-03T05:39:32.682Z,965.28
2019-05-03T05:40:34.748Z,965.35
2019-05-03T05:41:34.678Z,965.36
2019-05-03T05:42:32.784Z,965.31
2019-05-03T05:43:32.705Z,965.33
2019-05-03T05:44:32.813Z,965.42
2019-05-03T05:45:34.679Z,965.37
2019-05-03T05:46:32.764Z,965.34
2019-05-03T05:47:34.420Z,965.30
2019-05-03T05:48:34.780Z,965.40
2019-05-03T05:49:32.656Z,965.39
2019-05-03T05:50:34.509Z,965.33
2019-05-03T05:51:32.686Z,965.37
2019-05-03T05:52:34.642Z,965.48
2019-05-03T05:53:32.747Z,965.39
2019-05-03T05:54:34.685Z,965.36
2019-05-03T05:55:34.455Z,965.46
2019-05-03T05:56:32.730Z,965.34
2019-05-03T05:57:34.621Z,965.48
2019-05-03T05:58:34.665Z,965.45
2019-05-03T05:59:34.942Z,965.43
2019-05-03T06:00:32.749Z,965.47
2019-05-03T06:01:32.745Z,965.44
2019-05-03T06:02:35.700Z,965.47
2019-05-03T06:03:34.349Z,965.51
2019-05-03T06:04:34.811Z,965.46
2019-05-03T06:05:32.675Z,965.43
2019-05-03T06:06:34.719Z,965.45
2019-05-03T06:07:32.777Z,965.44
2019-05-03T06:08:32.659Z,965.44
2019-05-03T06:09:34.440Z,965.46
2019-05-03T06:10:34.706Z,965.37
2019-05-03T06:11:34.620Z,965.35
2019-05-03T06:12:32.739Z,965.52
2019-05-03T06:13:34.443Z,965.41
2019-05-03T06:14:34.562Z,965.42
2019-05-03T06:15:34.504Z,965.40
2019-05-03T06:16:34.749Z,965.41
2019-05-03T06:17:34.730Z,965.41
2019-05-03T06:18:32.752Z,965.43
2019-05-03T06:19:34.421Z,965.38
2019-05-03T06:20:34.817Z,965.46
2019-05-03T06:21:32.771Z,965.50
2019-05-03T06:22:34.440Z,965.47
2019-05-03T06:23:34.671Z,965.47
2019-05-03T06:24:34.814Z,965.44
2019-05-03T06:25:32.692Z,965.45
2019-05-03T06:26:34.703Z,965.46
2019-05-03T06:27:34.635Z,965.47
2019-05-03T06:28:32.760Z,965.44
2019-05-03T06:29:32.861Z,965.40
2019-05-03T06:30:32.753Z,965.38
2019-05-03T06:31:34.413Z,965.45
2019-05-03T06:32:34.557Z,965.43
2019-05-03T06:33:34.628Z,965.45
2019-05-03T06:34:32.775Z,965.48
2019-05-03T06:35:34.582Z,965.38
2019-05-03T06:36:32.766Z,965.39
2019-05-03T06:37:32.895Z,965.50
2019-05-03T06:38:34.301Z,965.52
2019-05-03T06:39:35.099Z,965.37
2019-05-03T06:40:32.750Z,965.52
2019-05-03T06:41:32.877Z,965.49
2019-05-03T06:42:32.708Z,965.48
2019-05-03T06:43:34.669Z,965.48
2019-05-03T06:44:34.813Z,965.48
2019-05-03T06:45:32.853Z,965.59
2019-05-03T06:46:35.447Z,965.59
2019-05-03T06:47:34.714Z,965.49
2019-05-03T06:48:32.892Z,965.51
2019-05-03T06:49:34.466Z,965.52
2019-05-03T06:50:34.653Z,965.60
2019-05-03T06:51:32.721Z,965.59
2019-05-03T06:52:32.690Z,965.53
2019-05-03T06:53:34.402Z,965.58
2019-05-03T06:54:34.661Z,965.50
2019-05-03T06:55:34.936Z,965.58
2019-05-03T06:56:32.800Z,965.47
2019-05-03T06:57:32.750Z,965.50
2019-05-03T06:58:34.254Z,965.55
2019-05-03T06:59:32.847Z,965.57
2019-05-03T07:00:34.911Z,965.53
2019-05-03T07:01:34.514Z,965.56
2019-05-03T07:02:32.779Z,965.49
2019-05-03T07:03:32.705Z,965.51
2019-05-03T07:04:34.614Z,965.54
2019-05-03T07:05:32.690Z,965.48
2019-05-03T07:06:39.606Z,965.53
2019-05-03T07:07:32.714Z,965.61
2019-05-03T07:08:34.469Z,965.57
2019-05-03T07:09:32.851Z,965.54
2019-05-03T07:10:35.106Z,965.56
2019-05-03T07:11:34.725Z,965.59
2019-05-03T07:12:32.774Z,965.60
2019-05-03T07:13:34.561Z,965.51
2019-05-03T07:14:34.879Z,965.59
2019-05-03T07:15:34.973Z,965.57
2019-05-03T07:16:32.818Z,965.53
2019-05-03T07:17:34.921Z,965.55
2019-05-03T07:18:34.997Z,965.54
2019-05-03T07:19:32.830Z,965.54
2019-05-03T07:20:32.738Z,965.57
2019-05-03T07:21:32.957Z,965.61
2019-05-03T07:22:32.740Z,965.54
2019-05-03T07:23:34.756Z,965.59
2019-05-03T07:24:35.467Z,965.57
2019-05-03T07:25:34.463Z,965.59
2019-05-03T07:26:34.408Z,965.65
2019-05-03T07:27:34.862Z,965.63
2019-05-03T07:28:44.472Z,965.54
2019-05-03T07:29:32.801Z,965.66
2019-05-03T07:30:35.117Z,965.58
2019-05-03T07:31:32.879Z,965.54
2019-05-03T07:32:34.704Z,965.57
2019-05-03T07:33:34.775Z,965.61
2019-05-03T07:34:34.925Z,965.61
2019-05-03T07:35:32.823Z,965.64
2019-05-03T07:36:32.893Z,965.66
2019-05-03T07:37:34.747Z,965.65
2019-05-03T07:38:34.840Z,965.69
2019-05-03T07:39:34.772Z,965.62
2019-05-03T07:40:32.794Z,965.62
2019-05-03T07:41:33.055Z,965.64
2019-05-03T07:42:34.646Z,965.64
2019-05-03T07:43:32.995Z,965.60
2019-05-03T07:44:34.754Z,965.62
2019-05-03T07:45:32.826Z,965.61
2019-05-03T07:46:34.746Z,965.52
2019-05-03T07:47:34.837Z,965.59
2019-05-03T07:48:32.832Z,965.65
2019-05-03T07:49:32.843Z,965.62
2019-05-03T07:50:33.299Z,965.64
2019-05-03T07:51:34.642Z,965.56
2019-05-03T07:52:34.734Z,965.57
2019-05-03T07:53:34.744Z,965.56
2019-05-03T07:54:34.779Z,965.65
2019-05-03T07:55:32.793Z,965.61
2019-05-03T07:56:32.829Z,965.53
2019-05-03T07:57:32.817Z,965.62
2019-05-03T07:58:34.585Z,965.60
2019-05-03T07:59:32.864Z,965.60
2019-05-03T08:00:34.347Z,965.65
2019-05-03T08:01:32.924Z,965.62
2019-05-03T08:02:32.865Z,965.59
2019-05-03T08:03:34.703Z,965.63
2019-05-03T08:04:32.975Z,965.57
2019-05-03T08:05:34.879Z,965.55
2019-05-03T08:06:34.623Z,965.62
2019-05-03T08:07:32.784Z,965.64
2019-05-03T08:08:32.759Z,965.61
2019-05-03T08:09:34.869Z,965.68
2019-05-03T08:10:34.493Z,965.68
2019-05-03T08:11:32.866Z,965.63
2019-05-03T08:12:34.795Z,965.69
2019-05-03T08:13:32.793Z,965.63
2019-05-03T08:14:32.820Z,965.64
2019-05-03T08:15:34.671Z,965.61
2019-05-03T08:16:35.055Z,965.68
2019-05-03T08:17:34.619Z,965.72
2019-05-03T08:18:35.291Z,965.62
2019-05-03T08:19:33.009Z,965.57
2019-05-03T08:20:34.911Z,965.73
2019-05-03T08:21:37.045Z,965.70
2019-05-03T08:22:34.523Z,965.66
2019-05-03T08:23:35.092Z,965.70
2019-05-03T08:24:34.618Z,965.72
2019-05-03T08:25:32.794Z,965.74
2019-05-03T08:26:34.850Z,965.76
2019-05-03T08:27:32.911Z,965.75
2019-05-03T08:28:34.567Z,965.78
2019-05-03T08:29:35.006Z,965.71
2019-05-03T08:30:32.961Z,965.78
2019-05-03T08:31:33.023Z,965.68
2019-05-03T08:32:32.866Z,965.74
2019-05-03T08:33:32.872Z,965.73
2019-05-03T08:34:34.813Z,965.79
2019-05-03T08:35:32.998Z,965.75
2019-05-03T08:36:34.883Z,965.74
2019-05-03T08:37:34.795Z,965.74
2019-05-03T08:38:34.546Z,965.75
2019-05-03T08:39:32.788Z,965.77
2019-05-03T08:40:34.861Z,965.77
2019-05-03T08:41:35.072Z,965.80
2019-05-03T08:42:32.812Z,965.74
2019-05-03T08:43:32.835Z,965.71
2019-05-03T08:44:35.186Z,965.73
2019-05-03T08:45:34.578Z,965.78
2019-05-03T08:46:32.924Z,965.76
2019-05-03T08:47:34.481Z,965.88
2019-05-03T08:48:35.223Z,965.78
2019-05-03T08:49:34.714Z,965.81
2019-05-03T08:50:34.748Z,965.83
2019-05-03T08:51:32.936Z,965.80
2019-05-03T08:52:34.807Z,965.84
2019-05-03T08:53:35.565Z,965.87
2019-05-03T08:54:34.756Z,965.82
2019-05-03T08:55:35.202Z,965.89
2019-05-03T08:56:34.767Z,965.79
2019-05-03T08:57:35.291Z,965.86
2019-05-03T08:58:34.648Z,965.85
2019-05-03T08:59:32.978Z,965.79
2019-05-03T09:00:32.994Z,965.87
2019-05-03T09:01:37.721Z,965.88
2019-05-03T09:02:34.587Z,965.79
2019-05-03T09:03:36.253Z,965.86
2019-05-03T09:04:37.593Z,965.85
2019-05-03T09:05:35.798Z,965.83
2019-05-03T09:06:33.047Z,965.85
2019-05-03T09:07:32.924Z,965.83
2019-05-03T09:08:35.152Z,965.80
2019-05-03T09:09:34.855Z,965.77
2019-05-03T09:10:35.105Z,965.80
2019-05-03T09:11:34.829Z,965.85
2019-05-03T09:12:34.326Z,965.86
2019-05-03T09:13:34.288Z,965.83
2019-05-03T09:14:42.562Z,965.81
2019-05-03T09:15:34.968Z,965.76
2019-05-03T09:16:32.904Z,965.81
2019-05-03T09:17:35.182Z,965.80
2019-05-03T09:18:34.587Z,965.84
2019-05-03T09:19:34.744Z,965.78
2019-05-03T09:20:35.610Z,965.79
2019-05-03T09:21:34.750Z,965.70
2019-05-03T09:22:34.854Z,965.76
2019-05-03T09:23:32.939Z,965.73
2019-05-03T09:24:34.991Z,965.79
2019-05-03T09:25:34.857Z,965.75
2019-05-03T09:26:34.738Z,965.81
2019-05-03T09:27:34.414Z,965.74
2019-05-03T09:28:34.886Z,965.82
2019-05-03T09:29:41.008Z,965.80
2019-05-03T09:30:32.889Z,965.74
2019-05-03T09:31:35.119Z,965.78
2019-05-03T09:32:34.924Z,965.74
2019-05-03T09:33:32.992Z,965.77
2019-05-03T09:34:34.951Z,965.76
2019-05-03T09:35:33.763Z,965.71
2019-05-03T09:36:34.452Z,965.84
2019-05-03T09:37:32.952Z,965.83
2019-05-03T09:38:34.885Z,965.81
2019-05-03T09:39:32.984Z,965.76
2019-05-03T09:40:35.050Z,965.78
2019-05-03T09:41:34.757Z,965.70
2019-05-03T09:42:32.878Z,965.74
2019-05-03T09:43:32.926Z,965.71
2019-05-03T09:44:35.025Z,965.77
2019-05-03T09:45:35.103Z,965.76
2019-05-03T09:46:32.928Z,965.78
2019-05-03T09:47:32.914Z,965.75
2019-05-03T09:48:34.678Z,965.82
2019-05-03T09:49:34.795Z,965.79
2019-05-03T09:50:32.944Z,965.72
2019-05-03T09:51:34.853Z,965.78
2019-05-03T09:52:35.371Z,965.80
2019-05-03T09:53:34.998Z,965.76
2019-05-03T09:54:34.779Z,965.84
2019-05-03T09:55:35.329Z,965.74
2019-05-03T09:56:34.617Z,965.74
2019-05-03T09:57:34.713Z,965.75
2019-05-03T09:58:36.407Z,965.84
2019-05-03T09:59:34.867Z,965.76
2019-05-03T10:00:32.897Z,965.77
2019-05-03T10:01:34.677Z,965.73
2019-05-03T10:02:35.000Z,965.75
2019-05-03T10:03:32.960Z,965.81
2019-05-03T10:04:32.912Z,965.78
2019-05-03T10:05:34.944Z,965.79
2019-05-03T10:06:33.151Z,965.77
2019-05-03T10:07:34.962Z,965.89
2019-05-03T10:08:33.041Z,965.78
2019-05-03T10:09:35.148Z,965.80
2019-05-03T10:10:35.593Z,965.80
2019-05-03T10:11:35.021Z,965.82
2019-05-03T10:12:33.008Z,965.82
2019-05-03T10:13:35.217Z,965.80
2019-05-03T10:14:32.912Z,965.81
2019-05-03T10:15:33.089Z,965.72
2019-05-03T10:16:35.057Z,965.78
2019-05-03T10:17:35.196Z,965.71
2019-05-03T10:18:34.937Z,965.71
2019-05-03T10:19:37.652Z,965.69
2019-05-03T10:20:34.761Z,965.62
2019-05-03T10:21:35.431Z,965.71
2019-05-03T10:22:34.772Z,965.67
2019-05-03T10:23:33.007Z,965.61
2019-05-03T10:24:34.986Z,965.65
2019-05-03T10:25:32.957Z,965.63
2019-05-03T10:26:33.027Z,965.58
2019-05-03T10:27:34.697Z,965.64
2019-05-03T10:28:33.121Z,965.52
2019-05-03T10:29:33.105Z,965.56
2019-05-03T10:30:35.301Z,965.59
2019-05-03T10:31:32.980Z,965.60
2019-05-03T10:32:35.363Z,965.63
2019-05-03T10:33:35.347Z,965.56
2019-05-03T10:34:33.009Z,965.59
2019-05-03T10:35:35.130Z,965.60
2019-05-03T10:36:32.985Z,965.54
2019-05-03T10:37:33.053Z,965.55
2019-05-03T10:38:32.995Z,965.59
2019-05-03T10:39:33.092Z,965.56
2019-05-03T10:40:33.062Z,965.50
2019-05-03T10:41:34.801Z,965.51
2019-05-03T10:42:35.151Z,965.53
2019-05-03T10:43:35.317Z,965.53
2019-05-03T10:44:35.426Z,965.52
2019-05-03T10:45:35.275Z,965.57
2019-05-03T10:46:34.481Z,965.53
2019-05-03T10:47:34.893Z,965.53
2019-05-03T10:48:35.329Z,965.61
2019-05-03T10:49:35.047Z,965.50
2019-05-03T10:50:34.816Z,965.61
2019-05-03T10:51:33.003Z,965.46
2019-05-03T10:52:34.895Z,965.51
2019-05-03T10:53:34.637Z,965.50
2019-05-03T10:54:35.593Z,965.46
2019-05-03T10:55:33.050Z,965.50
2019-05-03T10:56:35.617Z,965.52
2019-05-03T10:57:33.153Z,965.49
2019-05-03T10:58:32.955Z,965.48
2019-05-03T10:59:32.985Z,965.50
2019-05-03T11:00:45.219Z,965.42
2019-05-03T11:01:33.040Z,965.51
2019-05-03T11:02:34.947Z,965.43
2019-05-03T11:03:34.426Z,965.47
2019-05-03T11:04:33.701Z,965.49
2019-05-03T11:05:34.782Z,965.51
2019-05-03T11:06:33.564Z,965.46
2019-05-03T11:07:34.585Z,965.38
2019-05-03T11:08:33.047Z,965.46
2019-05-03T11:09:47.890Z,965.48
2019-05-03T11:10:33.007Z,965.46
2019-05-03T11:11:35.024Z,965.48
2019-05-03T11:12:34.718Z,965.45
2019-05-03T11:13:34.879Z,965.50
2019-05-03T11:14:35.036Z,965.52
2019-05-03T11:15:34.959Z,965.52
2019-05-03T11:16:35.113Z,965.52
2019-05-03T11:17:34.800Z,965.54
2019-05-03T11:18:34.589Z,965.47
2019-05-03T11:19:34.743Z,965.50
2019-05-03T11:20:34.564Z,965.48
2019-05-03T11:21:34.714Z,965.61
2019-05-03T11:22:34.943Z,965.40
2019-05-03T11:23:34.690Z,965.55
2019-05-03T11:24:34.791Z,965.45
2019-05-03T11:25:34.467Z,965.46
2019-05-03T11:26:34.991Z,965.41
2019-05-03T11:27:35.260Z,965.32
2019-05-03T11:28:35.243Z,965.34
2019-05-03T11:29:33.618Z,965.40
2019-05-03T11:30:33.024Z,965.41
2019-05-03T11:31:35.317Z,965.39
2019-05-03T11:32:35.127Z,965.23
2019-05-03T11:33:35.217Z,965.29
2019-05-03T11:34:35.309Z,965.28
2019-05-03T11:35:34.973Z,965.32
2019-05-03T11:36:34.777Z,965.30
2019-05-03T11:37:34.645Z,965.38
2019-05-03T11:38:34.955Z,965.34
2019-05-03T11:39:34.443Z,965.32
2019-05-03T11:40:34.624Z,965.32
2019-05-03T11:41:33.122Z,965.35
2019-05-03T11:42:35.203Z,965.38
2019-05-03T11:43:34.883Z,965.37
2019-05-03T11:44:32.981Z,965.34
2019-05-03T11:45:35.184Z,965.26
2019-05-03T11:46:35.387Z,965.33
2019-05-03T11:47:34.814Z,965.33
2019-05-03T11:48:34.760Z,965.32
2019-05-03T11:49:34.855Z,965.33
2019-05-03T11:50:34.758Z,965.37
2019-05-03T11:51:35.263Z,965.33
2019-05-03T11:52:35.342Z,965.31
2019-05-03T11:53:33.048Z,965.28
2019-05-03T11:54:33.035Z,965.29
2019-05-03T11:55:35.064Z,965.24
2019-05-03T11:56:33.309Z,965.26
2019-05-03T11:57:33.081Z,965.33
2019-05-03T11:58:34.590Z,965.19
2019-05-03T11:59:34.501Z,965.23
2019-05-03T12:00:33.131Z,965.23
2019-05-03T12:01:35.283Z,965.30
2019-05-03T12:02:33.009Z,965.23
2019-05-03T12:03:33.028Z,965.20
2019-05-03T12:04:35.243Z,965.23
2019-05-03T12:05:33.179Z,965.12
2019-05-03T12:06:33.207Z,965.17
2019-05-03T12:07:38.944Z,965.12
2019-05-03T12:08:34.618Z,965.12
2019-05-03T12:09:33.117Z,965.08
2019-05-03T12:10:50.087Z,965.07
2019-05-03T12:11:33.182Z,965.11
2019-05-03T12:12:35.243Z,965.06
2019-05-03T12:13:33.208Z,965.10
2019-05-03T12:14:34.624Z,965.11
2019-05-03T12:15:35.097Z,965.09
2019-05-03T12:17:08.651Z,965.02
2019-05-03T12:17:34.894Z,965.14
2019-05-03T12:18:47.826Z,965.07
2019-05-03T12:19:33.905Z,965.01
2019-05-03T12:20:35.743Z,964.94
2019-05-03T12:21:33.909Z,964.96
2019-05-03T12:22:35.552Z,965.06
2019-05-03T12:23:35.549Z,965.07
2019-05-03T12:24:35.390Z,965.00
2019-05-03T12:25:35.792Z,964.99
2019-05-03T12:26:41.570Z,964.99
2019-05-03T12:27:34.932Z,965.03
2019-05-03T12:28:35.166Z,964.93